Arcola, Louisiana
Current Conditions -  °F | °C
As of 7:15 PM on Tuesday 21 Oct 2014 (Local Time) from KHDC Reporting Station
Clear Clear  
Wind Chill: 68°   Ceiling: Unl
Heat Index: 68°   Visibility: 10mi
Dew Point: 57°   Wind: 3mph
Humidity: 68%   Direction: 360°N
Pressure: 30.01"   Gusts: NA
Location:  30.7896°N, 90.5314°W
Report Text: KHDC 220015Z AUTO 36003KT 10SM CLR 20/14 A3001 RMK AO2
Loading
Personal Weather Stations






























Interactive Weather Map New forecast layout! Learn more

10-Day Weather Forecast

Advertisements
Track Severe Weather on mobile